Time;durP1;ratioP1;P1;durP2;ratioP2;P2;SDS_P1;SDS_P2;PMS_P1;PMS_P2;Temp;Humidity;BMP_temperature;BMP_pressure;BME280_temperature;BME280_humidity;BME280_pressure;Samples;Min_cycle;Max_cycle;Signal;HPM_P1;HPM_P2
2021/08/10 00:01:15;;;;;;;10.18;5.95;;;;;;;18.97;60.45;98817.44;5069515;28;20366;-76
2021/08/10 00:03:41;;;;;;;9.60;5.68;;;;;;;18.98;60.09;98819.88;5071101;28;20028;-78
2021/08/10 00:06:07;;;;;;;8.32;6.05;;;;;;;18.99;60.15;98815.94;5071357;28;20476;-77
2021/08/10 00:08:32;;;;;;;9.07;6.03;;;;;;;18.99;60.19;98804.81;5071275;28;20112;-76
2021/08/10 00:10:58;;;;;;;8.95;5.90;;;;;;;19.00;60.14;98800.09;5070132;28;20459;-78
2021/08/10 00:13:24;;;;;;;11.27;6.10;;;;;;;19.02;60.04;98790.25;5070338;28;20016;-77
2021/08/10 00:15:49;;;;;;;9.05;5.93;;;;;;;19.05;60.22;98797.09;5070075;28;20024;-77
2021/08/10 00:18:15;;;;;;;10.70;6.43;;;;;;;19.07;60.14;98799.50;5068746;28;20031;-77
2021/08/10 00:20:40;;;;;;;9.27;6.22;;;;;;;19.11;60.21;98815.19;5068249;28;20063;-76
2021/08/10 00:23:06;;;;;;;11.63;6.53;;;;;;;19.14;60.28;98808.94;5068892;28;20111;-76
2021/08/10 00:25:32;;;;;;;9.77;6.03;;;;;;;19.16;60.20;98808.56;5069639;28;20413;-76
2021/08/10 00:28:00;;;;;;;9.35;5.90;;;;;;;19.15;60.32;98813.34;5068410;28;20029;-77
2021/08/10 00:30:26;;;;;;;11.32;6.68;;;;;;;19.16;60.12;98820.50;5070583;28;20473;-77
2021/08/10 00:32:52;;;;;;;12.73;6.35;;;;;;;19.16;60.21;98825.25;5071367;28;20051;-75
2021/08/10 00:35:17;;;;;;;10.40;5.72;;;;;;;19.15;60.33;98830.00;5070055;28;20024;-77
2021/08/10 00:37:43;;;;;;;10.90;5.82;;;;;;;19.17;60.42;98824.88;5071858;28;20469;-76
2021/08/10 00:40:11;;;;;;;10.73;6.20;;;;;;;19.19;60.22;98816.22;5069824;28;20119;-76
2021/08/10 00:42:36;;;;;;;11.40;6.53;;;;;;;19.19;60.26;98816.22;5069546;28;20086;-77
2021/08/10 00:45:02;;;;;;;8.43;5.57;;;;;;;19.19;60.32;98807.88;5073510;28;20016;-82
2021/08/10 00:47:27;;;;;;;7.93;5.63;;;;;;;19.19;60.33;98813.44;5072594;28;20089;-81
2021/08/10 00:49:53;;;;;;;9.95;5.78;;;;;;;19.22;60.29;98814.72;5077578;28;20021;-81
2021/08/10 00:52:18;;;;;;;10.65;5.90;;;;;;;19.24;60.64;98817.94;5083363;28;20515;-82
2021/08/10 00:54:43;;;;;;;10.98;6.53;;;;;;;19.21;60.20;98825.03;5071549;28;20077;-81
2021/08/10 00:57:09;;;;;;;9.73;6.25;;;;;;;19.21;60.15;98832.53;5070457;28;20423;-81
2021/08/10 00:59:35;;;;;;;11.73;5.97;;;;;;;19.20;60.27;98817.84;5071148;28;20048;-82
2021/08/10 01:02:03;;;;;;;9.70;5.88;;;;;;;19.17;60.26;98824.09;5071823;28;20031;-82
2021/08/10 01:04:29;;;;;;;9.15;5.75;;;;;;;19.18;60.32;98817.38;5072886;28;20038;-79
2021/08/10 01:07:12;;;;;;;9.95;5.82;;;;;;;19.15;60.38;98827.22;5072605;28;20032;-79
2021/08/10 01:09:57;;;;;;;10.68;5.38;;;;;;;19.17;60.44;98824.09;5071701;28;20073;-80
2021/08/10 01:12:41;;;;;;;6.95;5.13;;;;;;;19.19;60.54;98833.69;5072199;28;20111;-81
2021/08/10 01:15:13;;;;;;;9.30;5.22;;;;;;;19.22;60.43;98837.78;5069701;28;20023;-82
2021/08/10 01:17:58;;;;;;;9.10;5.50;;;;;;;19.21;60.33;98832.53;5071562;28;20388;-80
2021/08/10 01:21:01;;;;;;;11.38;6.25;;;;;;;19.19;60.62;98825.34;5071345;28;20028;-82
2021/08/10 01:23:30;;;;;;;11.88;7.72;;;;;;;19.20;60.36;98820.63;5070554;28;20502;-81
2021/08/10 01:26:17;;;;;;;10.02;7.38;;;;;;;19.25;60.51;98830.69;5070245;28;20021;-80
2021/08/10 01:29:09;;;;;;;14.40;7.72;;;;;;;19.23;60.48;98819.94;5069923;28;20016;-82
2021/08/10 01:31:41;;;;;;;13.80;7.60;;;;;;;19.22;60.29;98828.59;5070095;28;20025;-82
2021/08/10 01:34:30;;;;;;;14.05;7.57;;;;;;;19.17;60.14;98829.66;5071677;28;20052;-82
2021/08/10 01:36:57;;;;;;;;;;;;;;;19.14;60.11;98822.81;5070683;28;20025;-82
2021/08/10 01:39:27;;;;;;;13.93;7.25;;;;;;;19.05;60.23;98819.31;5071159;28;19912;-81
2021/08/10 01:41:53;;;;;;;14.32;7.88;;;;;;;19.04;60.25;98817.69;5071066;28;20112;-81
2021/08/10 01:44:25;;;;;;;13.77;7.57;;;;;;;19.02;60.44;98815.25;5071265;28;20078;-81
2021/08/10 01:46:52;;;;;;;11.52;7.45;;;;;;;19.02;60.40;98823.59;5071090;28;20198;-81
2021/08/10 01:49:18;;;;;;;11.18;7.43;;;;;;;19.04;60.47;98828.81;5071359;28;20021;-81
2021/08/10 01:51:45;;;;;;;13.23;8.38;;;;;;;19.04;60.51;98824.06;5070864;28;20056;-81
2021/08/10 01:54:12;;;;;;;13.10;7.68;;;;;;;19.07;60.67;98827.31;5070961;28;20033;-81
2021/08/10 01:56:40;;;;;;;12.27;8.20;;;;;;;19.06;60.53;98831.25;5070814;28;20107;-81
2021/08/10 01:59:07;;;;;;;12.38;8.23;;;;;;;19.09;60.62;98836.13;5070568;28;20024;-81
2021/08/10 02:01:35;;;;;;;12.45;7.20;;;;;;;19.12;60.59;98838.22;5072223;28;20048;-81
2021/08/10 02:04:03;;;;;;;9.60;7.32;;;;;;;19.12;60.49;98827.91;5074325;28;20032;-81
2021/08/10 02:06:29;;;;;;;13.25;7.20;;;;;;;19.14;60.57;98830.34;5072108;28;20261;-81
2021/08/10 02:08:57;;;;;;;10.77;6.95;;;;;;;19.16;60.55;98825.25;5073249;28;20052;-82
2021/08/10 02:11:24;;;;;;;10.63;6.93;;;;;;;19.13;60.55;98820.38;5074233;28;20024;-81
2021/08/10 02:13:51;;;;;;;11.80;7.10;;;;;;;19.13;60.49;98820.38;5074118;28;20028;-80
2021/08/10 02:16:18;;;;;;;10.50;6.80;;;;;;;19.14;60.47;98813.66;5074782;28;20112;-80
2021/08/10 02:18:46;;;;;;;10.50;7.35;;;;;;;19.13;60.84;98821.19;5078374;28;20082;-82
2021/08/10 02:21:19;;;;;;;10.05;7.07;;;;;;;19.13;60.60;98812.88;5072680;28;20389;-81
2021/08/10 02:23:46;;;;;;;9.13;6.82;;;;;;;19.14;60.65;98828.38;5074124;28;20024;-81
2021/08/10 02:26:13;;;;;;;13.48;7.57;;;;;;;19.13;60.69;98825.94;5071404;28;20031;-81
2021/08/10 02:28:41;;;;;;;9.35;6.93;;;;;;;19.06;60.74;98815.41;5072724;28;20517;-81
2021/08/10 02:31:08;;;;;;;10.85;7.15;;;;;;;19.00;60.66;98820.34;5073558;28;20085;-80
2021/08/10 02:33:34;;;;;;;10.75;7.15;;;;;;;18.99;60.69;98824.28;5073901;28;20025;-81
2021/08/10 02:36:02;;;;;;;9.68;6.80;;;;;;;18.96;60.60;98824.16;5074604;28;20472;-81
2021/08/10 02:38:29;;;;;;;10.35;6.93;;;;;;;18.92;60.90;98824.03;5070110;28;20042;-80
2021/08/10 02:40:57;;;;;;;11.77;7.28;;;;;;;18.88;60.79;98820.31;5074342;28;20040;-81
2021/08/10 02:43:26;;;;;;;12.48;7.32;;;;;;;18.85;60.88;98798.75;5073506;28;20036;-80
2021/08/10 02:45:51;;;;;;;10.43;7.20;;;;;;;18.84;61.01;98797.13;5073361;28;20493;-80
2021/08/10 02:48:17;;;;;;;12.07;7.53;;;;;;;18.83;60.94;98789.94;5073738;28;20031;-81
2021/08/10 02:50:42;;;;;;;10.85;7.00;;;;;;;18.82;61.13;98782.75;5073808;28;20028;-81
2021/08/10 02:53:08;;;;;;;10.43;7.43;;;;;;;18.82;61.42;98782.75;5073251;28;20031;-79
2021/08/10 02:55:36;;;;;;;11.30;7.53;;;;;;;18.80;61.06;98785.06;5072593;28;20487;-81
2021/08/10 02:58:13;;;;;;;12.23;7.82;;;;;;;18.71;61.03;98780.41;5072687;28;20074;-80
2021/08/10 03:00:52;;;;;;;11.43;8.00;;;;;;;18.63;60.98;98775.75;5071372;28;20511;-80
2021/08/10 03:03:19;;;;;;;11.40;7.97;;;;;;;18.63;61.31;98788.84;5071510;28;20423;-81
2021/08/10 03:05:48;;;;;;;12.98;8.57;;;;;;;18.62;61.39;98779.69;5071784;28;20380;-81
2021/08/10 03:08:21;;;;;;;12.53;8.60;;;;;;;18.63;61.51;98777.75;5071994;28;20029;-81
2021/08/10 03:10:49;;;;;;;14.63;7.63;;;;;;;18.63;61.60;98778.53;5073385;28;20025;-82
2021/08/10 03:13:17;;;;;;;13.52;8.57;;;;;;;18.64;61.58;98776.59;5071400;28;20024;-82
2021/08/10 03:15:44;;;;;;;11.32;8.90;;;;;;;18.61;61.74;98786.41;5074245;28;20420;-82
2021/08/10 03:18:13;;;;;;;13.07;9.25;;;;;;;18.59;61.60;98774.81;5074180;28;20052;-81
2021/08/10 03:20:41;;;;;;;14.80;9.90;;;;;;;18.56;61.66;98770.78;5071878;28;20429;-82
2021/08/10 03:23:08;;;;;;;12.43;9.10;;;;;;;18.54;61.73;98766.72;5074210;28;20088;-82
2021/08/10 03:25:35;;;;;;;15.73;9.88;;;;;;;18.54;61.92;98775.84;5074508;28;20023;-82
2021/08/10 03:28:01;;;;;;;13.57;9.35;;;;;;;18.54;61.72;98767.53;5071822;28;20020;-81
2021/08/10 03:30:27;;;;;;;15.30;9.52;;;;;;;18.53;61.92;98771.44;5073756;28;20494;-82
2021/08/10 03:32:55;;;;;;;15.98;9.38;;;;;;;18.53;61.52;98776.22;5074169;28;20111;-82
2021/08/10 03:35:20;;;;;;;14.23;8.48;;;;;;;18.50;62.13;98782.44;5074050;28;20074;-82
2021/08/10 03:37:46;;;;;;;14.98;9.82;;;;;;;18.46;61.96;98776.75;5074044;28;20444;-81
2021/08/10 03:40:12;;;;;;;16.60;9.38;;;;;;;18.41;61.72;98774.19;5074198;28;20039;-81
2021/08/10 03:42:38;;;;;;;13.60;9.48;;;;;;;18.39;62.13;98780.09;5073112;28;20025;-81
2021/08/10 03:45:05;;;;;;;18.20;9.13;;;;;;;18.39;62.35;98777.31;5063962;28;20044;-82
2021/08/10 03:47:32;;;;;;;12.77;9.02;;;;;;;18.40;62.32;98772.56;5053462;28;20531;-81
2021/08/10 03:49:59;;;;;;;14.02;8.45;;;;;;;18.35;62.23;98781.91;5054604;28;20029;-81
2021/08/10 03:52:25;;;;;;;14.30;8.80;;;;;;;18.34;62.62;98779.50;5068359;28;20100;-82
2021/08/10 03:54:50;;;;;;;14.70;8.98;;;;;;;18.35;62.47;98783.88;5070982;28;20060;-82
2021/08/10 03:57:18;;;;;;;14.98;9.32;;;;;;;18.34;62.33;98787.81;5062223;28;20052;-81
2021/08/10 03:59:51;;;;;;;14.88;9.40;;;;;;;18.28;62.11;98790.81;5055212;28;20568;-81
2021/08/10 04:02:17;;;;;;;13.77;9.30;;;;;;;18.23;62.47;98792.94;5057529;28;20059;-81
2021/08/10 04:04:45;;;;;;;13.55;8.70;;;;;;;18.18;62.57;98785.66;5073688;28;20485;-81
2021/08/10 04:07:10;;;;;;;14.48;9.10;;;;;;;18.13;62.76;98792.25;5073840;28;20087;-82
2021/08/10 04:09:40;;;;;;;12.23;8.80;;;;;;;18.10;62.61;98789.31;5074227;28;20068;-82
2021/08/10 04:12:08;;;;;;;13.30;8.15;;;;;;;18.03;62.89;98789.84;5072841;28;20389;-81
2021/08/10 04:14:34;;;;;;;14.70;8.80;;;;;;;18.01;62.92;98783.84;5064464;28;20028;-81
2021/08/10 04:17:03;;;;;;;12.80;8.63;;;;;;;18.00;62.75;98787.75;5073685;28;20043;-81
2021/08/10 04:19:31;;;;;;;13.65;8.57;;;;;;;17.99;62.84;98786.94;5071612;28;20039;-82
2021/08/10 04:21:56;;;;;;;14.65;8.85;;;;;;;18.00;63.13;98787.75;5069070;28;20028;-81
2021/08/10 04:24:22;;;;;;;13.43;9.02;;;;;;;18.00;63.23;98785.78;5072427;28;20028;-81
2021/08/10 04:26:47;;;;;;;16.90;9.48;;;;;;;18.01;63.27;98786.59;5073385;28;20052;-81
2021/08/10 04:29:13;;;;;;;14.52;9.10;;;;;;;18.04;63.25;98793.44;5072240;28;20107;-82
2021/08/10 04:31:40;;;;;;;20.83;10.00;;;;;;;18.07;63.35;98798.31;5072918;28;20436;-81
2021/08/10 04:34:05;;;;;;;13.95;9.50;;;;;;;18.08;63.28;98802.72;5062613;28;20033;-81
2021/08/10 04:36:31;;;;;;;16.73;10.05;;;;;;;18.04;63.54;98801.75;5053857;28;20033;-82
2021/08/10 04:38:57;;;;;;;18.33;10.48;;;;;;;18.02;63.41;98796.56;5055329;28;20071;-82
2021/08/10 04:41:22;;;;;;;16.38;10.02;;;;;;;18.05;63.56;98800.59;5060256;28;20032;-82
2021/08/10 04:43:48;;;;;;;16.80;9.98;;;;;;;18.07;63.75;98810.25;5074505;28;20124;-82
2021/08/10 04:46:13;;;;;;;15.30;9.50;;;;;;;18.07;63.87;98804.69;5067196;28;20049;-81
2021/08/10 04:48:38;;;;;;;15.88;9.63;;;;;;;18.11;64.05;98802.03;5069292;28;20442;-82
2021/08/10 04:51:04;;;;;;;13.65;9.25;;;;;;;18.15;64.06;98803.78;5069375;28;20029;-82
2021/08/10 04:53:30;;;;;;;17.30;9.23;;;;;;;18.20;64.25;98807.50;5055266;28;20108;-81
2021/08/10 04:55:56;;;;;;;12.52;8.50;;;;;;;18.23;63.93;98801.28;5053143;28;20075;-82
2021/08/10 04:58:21;;;;;;;14.00;7.80;;;;;;;18.27;64.27;98799.44;5061207;28;20032;-82
2021/08/10 05:00:50;;;;;;;12.52;8.10;;;;;;;18.29;64.14;98797.16;5058752;28;20370;-82
2021/08/10 05:03:16;;;;;;;13.70;7.78;;;;;;;18.34;64.11;98796.16;5060607;28;20078;-81
2021/08/10 05:05:42;;;;;;;11.55;6.60;;;;;;;18.35;64.24;98786.63;5053227;28;20032;-81
2021/08/10 05:08:07;;;;;;;12.63;6.70;;;;;;;18.37;64.04;98784.34;5072071;28;20060;-82
2021/08/10 05:10:33;;;;;;;8.88;5.57;;;;;;;18.42;64.13;98790.50;5071809;28;20023;-82
2021/08/10 05:12:58;;;;;;;11.55;5.63;;;;;;;18.45;64.22;98787.06;5070270;28;20037;-82
2021/08/10 05:15:24;;;;;;;7.97;5.50;;;;;;;18.49;63.61;98789.94;5060579;28;20040;-82
2021/08/10 05:17:49;;;;;;;8.93;5.65;;;;;;;18.52;63.67;98791.25;5052757;28;20064;-82
2021/08/10 05:20:15;;;;;;;9.43;5.82;;;;;;;18.55;63.71;98796.91;5062310;28;20032;-82
2021/08/10 05:22:43;;;;;;;10.05;6.32;;;;;;;18.59;63.71;98791.47;5072683;28;20361;-82
2021/08/10 05:25:10;;;;;;;10.85;5.65;;;;;;;18.66;63.60;98794.53;5072358;28;20032;-83
2021/08/10 05:27:35;;;;;;;11.38;5.55;;;;;;;18.71;63.44;98799.88;5071618;28;20028;-82
2021/08/10 05:30:01;;;;;;;10.00;5.50;;;;;;;18.79;63.67;98798.16;5056427;28;20389;-82
2021/08/10 05:32:27;;;;;;;7.00;4.88;;;;;;;18.86;63.40;98800.38;5052805;28;20021;-82
2021/08/10 05:34:52;;;;;;;7.43;4.82;;;;;;;18.94;63.25;98793.91;5058284;28;20423;-81
2021/08/10 05:37:18;;;;;;;11.18;5.25;;;;;;;19.00;63.52;98794.53;5068088;28;20040;-82
2021/08/10 05:39:43;;;;;;;12.30;5.00;;;;;;;19.06;63.04;98793.16;5053363;28;20033;-82
2021/08/10 05:42:08;;;;;;;7.13;4.45;;;;;;;19.15;63.02;98806.94;5071880;28;20041;-82
2021/08/10 05:44:34;;;;;;;8.15;4.40;;;;;;;19.18;62.49;98792.34;5072410;28;20066;-82
2021/08/10 05:46:59;;;;;;;10.80;4.47;;;;;;;19.22;62.49;98798.03;5071199;28;20140;-82
2021/08/10 05:49:25;;;;;;;7.90;4.35;;;;;;;19.28;62.46;98793.88;5067319;28;20047;-82
2021/08/10 05:51:51;;;;;;;7.88;4.45;;;;;;;19.32;61.75;98798.41;5056988;28;20037;-81
2021/08/10 05:54:16;;;;;;;8.77;3.90;;;;;;;19.37;61.90;98797.34;5062214;28;20037;-81
2021/08/10 05:56:42;;;;;;;10.35;4.15;;;;;;;19.45;61.95;98798.38;5072382;28;20028;-81
2021/08/10 05:59:08;;;;;;;7.18;4.45;;;;;;;19.53;61.94;98802.22;5070922;28;20032;-81
2021/08/10 06:01:37;;;;;;;9.20;4.38;;;;;;;19.59;61.45;98796.06;5064946;28;20021;-81
2021/08/10 06:04:04;;;;;;;8.85;4.28;;;;;;;19.68;61.56;98795.16;5052305;28;20385;-81
2021/08/10 06:06:30;;;;;;;8.23;4.43;;;;;;;19.75;61.10;98798.16;5052458;28;20366;-81
2021/08/10 06:08:55;;;;;;;8.68;4.10;;;;;;;19.84;61.16;98793.25;5055867;28;20032;-82
2021/08/10 06:11:20;;;;;;;8.80;4.50;;;;;;;19.91;60.85;98796.28;5071265;28;20421;-82
2021/08/10 06:13:46;;;;;;;7.97;4.20;;;;;;;19.99;60.88;98797.31;5070465;28;20024;-82
2021/08/10 06:16:11;;;;;;;7.78;4.47;;;;;;;20.06;60.80;98800.31;5071270;28;20013;-81
2021/08/10 06:18:36;;;;;;;8.50;4.80;;;;;;;20.15;60.89;98796.59;5072038;28;20021;-81
2021/08/10 06:21:02;;;;;;;8.88;4.75;;;;;;;20.24;60.69;98802.84;5070929;28;20081;-81
2021/08/10 06:23:27;;;;;;;8.38;5.22;;;;;;;20.29;60.63;98799.81;5065611;28;20021;-80
2021/08/10 06:25:53;;;;;;;8.52;5.18;;;;;;;20.33;60.79;98799.91;5071699;28;20401;-81
2021/08/10 06:28:18;;;;;;;9.75;5.28;;;;;;;20.36;60.43;98797.22;5070758;28;20150;-83
2021/08/10 06:30:44;;;;;;;11.68;5.60;;;;;;;20.45;60.57;98807.38;5070432;28;20070;-83
2021/08/10 06:33:09;;;;;;;8.75;5.65;;;;;;;20.51;60.67;98801.22;5067471;28;20029;-83
2021/08/10 06:35:35;;;;;;;12.35;6.40;;;;;;;20.60;60.84;98798.28;5071389;28;20495;-83
2021/08/10 06:38:00;;;;;;;13.82;6.75;;;;;;;20.64;60.74;98795.59;5072092;28;20080;-83
2021/08/10 06:40:25;;;;;;;11.07;6.35;;;;;;;20.71;60.67;98801.34;5070444;28;20035;-83
2021/08/10 06:42:51;;;;;;;10.10;5.88;;;;;;;20.78;60.57;98801.59;5072166;28;20047;-83
2021/08/10 06:45:16;;;;;;;12.10;5.38;;;;;;;20.85;60.45;98798.19;5071888;28;20549;-76
2021/08/10 06:47:42;;;;;;;12.07;5.97;;;;;;;20.92;60.15;98797.56;5072624;28;20036;-77
2021/08/10 06:50:08;;;;;;;10.60;5.47;;;;;;;21.00;60.54;98798.56;5066194;28;20112;-74
2021/08/10 06:52:34;;;;;;;10.52;5.38;;;;;;;21.05;59.96;98792.72;5069691;28;20028;-74
2021/08/10 06:55:00;;;;;;;9.75;5.32;;;;;;;21.15;59.81;98796.94;5072791;28;20107;-76
2021/08/10 06:57:26;;;;;;;11.13;4.97;;;;;;;21.20;59.67;98791.91;5072618;28;20388;-75
2021/08/10 06:59:51;;;;;;;7.50;4.82;;;;;;;21.26;59.36;98789.69;5072632;28;20028;-77
2021/08/10 07:02:17;;;;;;;8.77;5.18;;;;;;;21.33;59.51;98787.06;5072465;28;20088;-75
2021/08/10 07:04:42;;;;;;;9.57;5.93;;;;;;;21.39;59.73;98795.97;5073357;28;20472;-78
2021/08/10 07:07:07;;;;;;;10.25;5.78;;;;;;;21.45;59.85;98790.91;5073890;28;20016;-77
2021/08/10 07:09:33;;;;;;;12.57;5.32;;;;;;;21.51;59.37;98787.50;5073863;28;20032;-77
2021/08/10 07:11:58;;;;;;;6.60;4.20;;;;;;;21.56;59.20;98781.66;5058800;28;20473;-77
2021/08/10 07:14:24;;;;;;;8.88;4.05;;;;;;;21.63;59.29;98786.63;5062333;28;20082;-77
2021/08/10 07:16:49;;;;;;;6.80;3.90;;;;;;;21.70;59.17;98772.81;5067159;28;20032;-76
2021/08/10 07:19:18;;;;;;;8.13;4.10;;;;;;;21.77;59.30;98769.38;5072890;28;20048;-76
2021/08/10 07:21:43;;;;;;;7.05;4.38;;;;;;;21.84;59.09;98763.13;5072704;28;20033;-76
2021/08/10 07:24:09;;;;;;;5.85;4.10;;;;;;;21.90;59.13;98770.06;5072418;28;20114;-76
2021/08/10 07:26:35;;;;;;;6.47;3.67;;;;;;;21.98;59.36;98763.47;5063027;28;20031;-75
2021/08/10 07:29:02;;;;;;;6.88;3.78;;;;;;;22.07;59.12;98777.22;5051283;28;20029;-80
2021/08/10 07:31:28;;;;;;;6.15;3.95;;;;;;;22.15;58.84;98769.81;5051743;28;20028;-75
2021/08/10 07:33:54;;;;;;;7.00;4.18;;;;;;;22.23;58.65;98768.75;5062984;28;20025;-74
2021/08/10 07:36:19;;;;;;;6.72;3.78;;;;;;;22.30;58.65;98776.50;5073117;28;20028;-74
2021/08/10 07:38:45;;;;;;;6.80;3.67;;;;;;;22.35;58.62;98767.00;5073029;28;20032;-72
2021/08/10 07:41:11;;;;;;;8.85;4.13;;;;;;;22.41;58.36;98771.13;5072654;28;20024;-71
2021/08/10 07:43:37;;;;;;;8.93;4.13;;;;;;;22.47;58.15;98775.28;5073332;28;20040;-73
2021/08/10 07:46:02;;;;;;;5.07;3.50;;;;;;;22.53;58.05;98775.78;5073993;28;20049;-74
2021/08/10 07:48:28;;;;;;;8.60;4.10;;;;;;;22.58;58.03;98772.69;5074171;28;20024;-74
2021/08/10 07:50:55;;;;;;;7.68;3.97;;;;;;;22.67;58.00;98770.47;5074025;28;20105;-74
2021/08/10 07:53:20;;;;;;;5.85;3.70;;;;;;;22.76;58.01;98770.22;5070551;28;20385;-74
2021/08/10 07:55:49;;;;;;;7.78;3.72;;;;;;;22.84;57.86;98768.34;5072087;28;20020;-73
2021/08/10 07:58:14;;;;;;;8.68;3.92;;;;;;;22.87;57.27;98760.06;5072174;28;20377;-74
2021/08/10 08:00:40;;;;;;;8.02;4.05;;;;;;;22.90;57.07;98759.31;5072929;28;20028;-74
2021/08/10 08:03:05;;;;;;;8.27;3.45;;;;;;;22.97;56.96;98760.63;5072976;28;20392;-73
2021/08/10 08:05:31;;;;;;;8.95;3.92;;;;;;;23.00;56.93;98757.88;5072416;28;20024;-72
2021/08/10 08:07:57;;;;;;;6.45;3.72;;;;;;;23.07;56.70;98757.19;5072373;28;20033;-73
2021/08/10 08:10:23;;;;;;;6.93;3.20;;;;;;;23.13;56.59;98760.50;5071565;28;20034;-74
2021/08/10 08:12:48;;;;;;;4.43;2.88;;;;;;;23.19;56.16;98759.00;5072516;28;20028;-72
2021/08/10 08:15:13;;;;;;;6.10;3.65;;;;;;;23.24;55.73;98757.91;5072852;28;20025;-72
2021/08/10 08:17:39;;;;;;;9.68;3.90;;;;;;;23.31;55.78;98760.81;5071585;28;20032;-72
2021/08/10 08:20:05;;;;;;;13.55;9.07;;;;;;;23.36;55.38;98754.09;5070574;28;20512;-70
2021/08/10 08:22:30;;;;;;;7.82;4.68;;;;;;;23.43;55.70;98752.22;5066734;28;20119;-74
2021/08/10 08:24:56;;;;;;;10.60;5.45;;;;;;;23.52;55.90;98762.31;5060391;28;20036;-72
2021/08/10 08:27:21;;;;;;;10.65;6.45;;;;;;;23.58;55.67;98761.66;5062461;28;20112;-75
2021/08/10 08:29:47;;;;;;;8.20;3.78;;;;;;;23.64;55.17;98767.72;5062378;28;20042;-69
2021/08/10 08:32:12;;;;;;;7.50;4.10;;;;;;;23.70;55.01;98766.22;5063249;28;20028;-71
2021/08/10 08:34:38;;;;;;;7.80;3.67;;;;;;;23.73;54.89;98761.84;5063062;28;20035;-72
2021/08/10 08:37:04;;;;;;;7.25;3.50;;;;;;;23.77;54.54;98757.09;5069527;28;20540;-76
2021/08/10 08:39:30;;;;;;;7.13;3.95;;;;;;;23.79;54.04;98755.56;5071075;28;20115;-72
2021/08/10 08:41:59;;;;;;;6.80;4.30;;;;;;;23.83;54.12;98764.00;5071941;28;20564;-74
2021/08/10 08:44:24;;;;;;;10.82;3.90;;;;;;;23.88;54.03;98757.25;5070769;28;20047;-73
2021/08/10 08:46:51;;;;;;;8.98;4.72;;;;;;;23.92;53.61;98758.09;5071414;28;20389;-71
2021/08/10 08:49:22;;;;;;;7.22;3.38;;;;;;;23.97;53.73;98762.59;5070892;28;20025;-71
2021/08/10 08:51:48;;;;;;;6.07;3.25;;;;;;;24.00;53.19;98761.84;5071754;28;20020;-73
2021/08/10 08:54:14;;;;;;;8.57;3.90;;;;;;;24.01;52.49;98758.66;5071131;28;20031;-74
2021/08/10 08:56:39;;;;;;;8.98;4.60;;;;;;;24.05;52.48;98755.91;5075947;28;20036;-71
2021/08/10 08:59:05;;;;;;;8.45;4.40;;;;;;;24.11;53.07;98756.38;5070345;28;20546;-72
2021/08/10 09:01:30;;;;;;;10.82;6.95;;;;;;;24.17;52.35;98760.47;5071697;28;20024;-72
2021/08/10 09:03:56;;;;;;;6.43;3.90;;;;;;;24.21;52.12;98756.53;5070183;28;20028;-72
2021/08/10 09:06:22;;;;;;;7.68;3.60;;;;;;;24.22;51.38;98758.13;5072420;28;20036;-73
2021/08/10 09:08:52;;;;;;;5.93;3.13;;;;;;;24.26;51.60;98752.56;5059914;28;20027;-73
2021/08/10 09:11:20;;;;;;;14.35;9.32;;;;;;;24.31;51.23;98748.63;5061308;28;20033;-73
2021/08/10 09:13:57;;;;;;;7.53;3.53;;;;;;;24.36;51.55;98751.91;5063883;28;20027;-72
2021/08/10 09:16:23;;;;;;;5.90;3.47;;;;;;;24.45;51.59;98753.59;5063201;28;20021;-72
2021/08/10 09:18:49;;;;;;;5.75;3.10;;;;;;;24.49;51.04;98749.63;5062545;28;20039;-74
2021/08/10 09:21:17;;;;;;;7.57;3.17;;;;;;;24.53;50.32;98741.28;5060480;28;20556;-72
2021/08/10 09:23:50;;;;;;;4.90;2.75;;;;;;;24.57;50.07;98749.72;5061048;28;20033;-69
2021/08/10 09:26:20;;;;;;;5.68;2.90;;;;;;;24.60;49.81;98743.34;5063329;28;20024;-86
2021/08/10 09:28:47;;;;;;;4.80;2.90;;;;;;;24.60;49.26;98738.56;5063777;28;20046;-88
2021/08/10 09:31:37;;;;;;;4.75;3.05;;;;;;;24.60;48.65;98744.16;5063451;28;20039;-81
2021/08/10 09:34:17;;;;;;;5.18;2.80;;;;;;;24.61;47.95;98734.56;5063119;28;20040;-84
2021/08/10 09:36:43;;;;;;;5.15;2.65;;;;;;;24.64;48.01;98736.59;5063474;28;20037;-82
2021/08/10 09:39:09;;;;;;;6.07;2.88;;;;;;;24.65;48.09;98731.78;5063473;28;20029;-86
2021/08/10 09:41:35;;;;;;;4.55;2.70;;;;;;;24.69;48.23;98729.81;5061379;28;20335;-82
2021/08/10 09:44:12;;;;;;;5.93;3.10;;;;;;;24.75;48.81;98735.91;5062475;28;20439;-81
2021/08/10 09:46:44;;;;;;;5.55;2.80;;;;;;;24.83;48.08;98732.00;5067643;28;20881;-79
2021/08/10 09:49:10;;;;;;;6.82;2.83;;;;;;;24.88;48.52;98734.44;5065473;28;20511;-83
2021/08/10 09:51:46;;;;;;;5.05;2.85;;;;;;;24.94;48.19;98732.09;5063099;28;20040;-81
2021/08/10 09:54:12;;;;;;;4.43;2.45;;;;;;;24.96;47.74;98721.28;5062752;28;20476;-83
2021/08/10 09:56:53;;;;;;;4.80;2.58;;;;;;;25.03;48.09;98718.53;5060561;28;20024;-81
2021/08/10 09:59:43;;;;;;;8.00;2.45;;;;;;;25.11;48.52;98725.81;5062364;28;21078;-82
2021/08/10 10:02:21;;;;;;;7.45;3.10;;;;;;;25.22;48.84;98717.50;5052037;28;20658;-83
2021/08/10 10:04:54;;;;;;;4.40;2.97;;;;;;;25.32;48.44;98721.56;5062045;28;20510;-81
2021/08/10 10:07:21;;;;;;;7.90;2.60;;;;;;;25.37;47.17;98720.41;5062522;28;20033;-80
2021/08/10 10:09:47;;;;;;;4.60;2.40;;;;;;;25.38;47.02;98716.41;5061106;28;20040;-81
2021/08/10 10:12:14;;;;;;;4.45;2.28;;;;;;;25.42;46.49;98715.22;5060896;28;20032;-84
2021/08/10 10:14:41;;;;;;;5.85;2.45;;;;;;;25.48;47.18;98720.50;5065918;28;20070;-81
2021/08/10 10:17:10;;;;;;;3.13;2.40;;;;;;;25.52;46.44;98715.72;5065590;28;20033;-80
2021/08/10 10:19:37;;;;;;;5.03;2.75;;;;;;;25.55;46.44;98712.94;5068552;28;20028;-77
2021/08/10 10:22:05;;;;;;;12.95;5.80;;;;;;;25.61;46.68;98713.38;5069416;28;20029;-76
2021/08/10 10:24:47;;;;;;;4.75;2.78;;;;;;;25.69;46.99;98714.22;5070590;28;20066;-74
2021/08/10 10:27:13;;;;;;;4.72;2.53;;;;;;;25.75;46.48;98709.84;5073327;28;20025;-73
2021/08/10 10:29:42;;;;;;;5.38;2.60;;;;;;;25.77;45.90;98715.88;5072820;28;20392;-73
2021/08/10 10:32:08;;;;;;;6.25;2.75;;;;;;;25.81;46.08;98708.28;5071998;28;20028;-74
2021/08/10 10:34:36;;;;;;;3.00;2.13;;;;;;;25.89;45.92;98702.66;5070862;28;20042;-74
2021/08/10 10:37:03;;;;;;;2.72;2.10;;;;;;;25.90;45.50;98713.53;5069743;28;20122;-78
2021/08/10 10:39:31;;;;;;;6.57;2.45;;;;;;;25.90;44.66;98699.47;5073265;28;20025;-76
2021/08/10 10:42:00;;;;;;;5.43;2.00;;;;;;;25.90;44.44;98696.66;5073151;28;20052;-77
2021/08/10 10:44:39;;;;;;;2.95;2.20;;;;;;;25.94;44.83;98691.88;5072062;28;20063;-75
2021/08/10 10:47:29;;;;;;;6.05;1.92;;;;;;;26.02;44.98;98681.47;5072469;28;20040;-76
2021/08/10 10:49:57;;;;;;;3.20;2.00;;;;;;;26.08;44.42;98682.69;5071537;28;20031;-77
2021/08/10 10:52:24;;;;;;;3.85;2.20;;;;;;;26.12;44.55;98683.50;5071802;28;20079;-73
2021/08/10 10:54:52;;;;;;;3.75;2.15;;;;;;;26.19;43.95;98690.41;5072049;28;20048;-72
2021/08/10 10:57:29;;;;;;;4.47;2.10;;;;;;;26.25;44.46;98678.34;5072778;28;20033;-72
2021/08/10 11:00:15;;;;;;;3.03;2.00;;;;;;;26.30;44.22;98680.78;5071907;28;20484;-74
2021/08/10 11:02:42;;;;;;;6.55;2.28;;;;;;;26.34;44.09;98666.72;5071917;28;20047;-73
2021/08/10 11:07:39;;;;;;;3.38;2.20;;;;;;;26.41;43.34;98663.94;5070162;28;20124;-72
2021/08/10 11:10:11;;;;;;;8.73;4.80;;;;;;;26.46;43.57;98657.13;5052419;28;20040;-75
2021/08/10 11:12:44;;;;;;;5.70;3.53;;;;;;;26.51;43.24;98653.09;5068086;28;20107;-74
2021/08/10 11:15:17;;;;;;;6.18;2.80;;;;;;;26.56;43.47;98656.31;5068171;28;20034;-76
2021/08/10 11:18:08;;;;;;;3.15;2.13;;;;;;;26.64;43.48;98654.34;5067979;28;20025;-77
2021/08/10 11:20:35;;;;;;;4.00;2.30;;;;;;;26.72;43.38;98641.06;5069731;28;20040;-75
2021/08/10 11:23:21;;;;;;;3.83;2.40;;;;;;;26.81;43.20;98646.28;5067803;28;20120;-74
2021/08/10 11:25:49;;;;;;;4.50;3.00;;;;;;;26.89;44.49;98650.75;5066738;28;20036;-75
2021/08/10 11:28:37;;;;;;;5.28;3.47;;;;;;;26.95;43.84;98649.16;5070543;28;20024;-74
2021/08/10 11:31:04;;;;;;;3.08;2.53;;;;;;;26.97;42.15;98629.84;5067895;28;20492;-75
2021/08/10 11:33:30;;;;;;;5.05;2.53;;;;;;;27.01;42.80;98633.47;5072046;28;20032;-74
2021/08/10 11:36:16;;;;;;;5.25;2.50;;;;;;;27.09;43.03;98637.06;5071819;28;20473;-75